PHSO2: Bird Creek at SH 99 at Pawhuska, Ok

                                SHEF ID:       PHSO2     Bird Creek at SH 99
STATION TYPE:

PRECIP STAGE STAGE(2) RIV-FLOW VOLTAGE BAT-LOAD
in ft ft cfs volt volt
Ccp-Rev Ccp-Rev Ccp-Rev Ccp-Rev Ccp-Rev Ccp-Rev
(America/Chicago)
06/28 00:00 0.00 7.15 7.00 358 12.95 ----
06/28 01:00 0.00 7.11 6.99 344 12.93 ----
06/28 02:00 0.00 7.09 6.95 337 12.91 ----
06/28 03:00 0.00 7.07 6.94 330 12.89 ----
06/28 04:00 0.00 7.04 6.91 320 12.88 ----
06/28 05:00 0.00 7.03 6.89 317 12.84 ----
06/28 06:00 0.00 7.00 6.86 307 12.84 ----
06/28 07:00 0.00 6.99 6.84 304 12.90 ----
06/28 08:00 0.00 6.97 6.82 298 13.38 ----
06/28 09:00 0.00 6.95 6.82 291 13.90 ----
06/28 10:00 0.00 6.93 6.78 285 13.91 ----
06/28 11:00 0.00 6.90 6.78 276 13.38 ----
06/28 12:00 0.00 6.88 6.75 270 13.35 ----
06/28 13:00 0.00 6.87 6.75 267 13.35 ----
06/28 14:00 0.00 6.85 6.72 261 13.33 ----
06/28 15:00 0.00 6.82 6.70 252 13.29 ----
06/28 16:00 0.00 6.81 6.68 249 13.29 ----
06/28 17:00 0.00 6.79 6.65 244 13.33 ----
06/28 18:00 0.00 6.75 6.63 233 13.32 ----
06/28 19:00 0.00 6.74 6.60 230 13.20 ----
06/28 20:00 0.00 6.72 6.60 225 13.06 ----
06/28 21:00 0.00 6.69 6.57 217 12.99 ----
06/28 22:00 0.00 6.68 6.55 214 12.99 ----
06/28 23:00 0.00 6.65 6.52 206 12.96 ----
Data processed at Mon 29Jun2026 04:53 GMT

NOTICE: If you are parsing this page

Please convert to using our Data API. Starting early 2026 we will be migrating to: https://water.usace.army.mil with modern pages rendered in JavaScript. When this migration completes you will no longer be able to scrape this page! CWMSDataAPI (CDA)

Timeseries IDs (TSIDs)

TSIDs used from left to right in the data table
PAWH.Precip-Inc.Total.1Hour.1Hour.Ccp-Rev
PAWH.Stage.Inst.1Hour.0.Ccp-Rev
PAWH.Stage-Alt.Inst.1Hour.0.Ccp-Rev
PAWH.Flow.Inst.1Hour.0.Ccp-Rev
PAWH.Volt-Battery.Inst.1Hour.0.Ccp-Rev
PAWH.Volt-Battery Load.Inst.1Hour.0.Ccp-Rev

                            

All information presented herein is the property of the government of the United States of America and may be revised or deleted at any time without prior notice. Dissemination of this information without the expressed written consent of the Public Affairs Office, Tulsa District U.S. Army Corps of Engineers is strictly prohibited. These data are gathered electronically and, as presented, have NOT undergone any form of quality control. These data are NOT guaranteed to be valid or correct.